MMZC/ZCL METAR and TAF weather

Enter ICAO airport designator
Station Type Date Time Source
MMZC METAR 2022/06/30 12:40 UTC NOAA

MMZC 301240Z 00000KT 4SM DZ OVC040 15/14 A3036 RMK 8/7// HZ VC


Station Type Date Time Source
MMZC Decoded METAR 2022/06/30 12:40 UTC NOAA

Zacatecas Airport, Mexico (MMZC) 22-54N 102-41W
Jun 30, 2022 - 08:40 AM EDT / 2022.06.30 1240 UTC
Wind: Calm:0
Visibility: 4 mile(s):0
Sky conditions: overcast
Weather: drizzle
Temperature: 59 F (15 C)
Dew Point: 57 F (14 C)
Relative Humidity: 93%
Pressure (altimeter): 30.36 in. Hg (1028 hPa)
ob: MMZC 301240Z 00000KT 4SM DZ OVC040 15/14 A3036 RMK 8/7// HZ VC
cycle: 12

Station Type Date Time Source
MMZC TAF 2022/06/30 14:40 UTC NOAA

TAF
AMD MMZC 301334Z 3014/0118 06005KT 4SM DZ OVC040 TX25/3021Z TN14/3112Z
FM301500 08005KT 6SM HZ BKN040 BKN100
TEMPO 3015/3018 6SM -RA
FM301900 13010KT P6SM BKN040 OVC100
TEMPO 3023/0103 5SM TSRA BKN030CB
FM010300 12005KT 5SM HZ BKN030 BKN080
FM010600 16010KT P6SM SCT030 BKN200
FM011600 12010KT P6SM SCT030 BKN200

Example: see airport list